Time;durP1;ratioP1;P1;durP2;ratioP2;P2;SDS_P1;SDS_P2;PMS_P1;PMS_P2;Temp;Humidity;BMP_temperature;BMP_pressure;BME280_temperature;BME280_humidity;BME280_pressure;Samples;Min_cycle;Max_cycle;Signal;HPM_P1;HPM_P2
2022/06/22 00:00:37;;;;;;;20.73;4.07;;;;;;;25.96;41.78;99687.66;4973433;28;20031;-81
2022/06/22 00:03:07;;;;;;;22.30;4.13;;;;;;;25.85;42.19;99696.84;4973389;28;20061;-82
2022/06/22 00:05:39;;;;;;;15.15;4.40;;;;;;;25.80;42.79;99694.00;4973162;28;20095;-82
2022/06/22 00:08:11;;;;;;;14.73;3.70;;;;;;;25.75;43.43;99718.69;4976796;28;20030;-81
2022/06/22 00:10:51;;;;;;;16.25;3.85;;;;;;;25.69;44.53;99718.81;4977135;28;20497;-82
2022/06/22 00:13:29;;;;;;;17.55;4.20;;;;;;;25.51;45.15;99719.84;4977113;28;20042;-82
2022/06/22 00:16:01;;;;;;;12.98;4.00;;;;;;;25.49;45.92;99730.28;4976917;28;20026;-80
2022/06/22 00:18:45;;;;;;;10.30;3.97;;;;;;;25.41;46.69;99744.38;4975116;28;20029;-79
2022/06/22 00:21:19;;;;;;;9.38;3.67;;;;;;;25.35;47.70;99739.84;4976300;28;20062;-81
2022/06/22 00:23:49;;;;;;;9.30;3.22;;;;;;;25.26;48.06;99744.03;4975336;28;20109;-80
2022/06/22 00:26:23;;;;;;;13.80;4.18;;;;;;;25.13;49.20;99758.06;4976487;28;20608;-80
2022/06/22 00:29:04;;;;;;;16.52;4.43;;;;;;;25.00;49.67;99750.88;4976258;28;20105;-81
2022/06/22 00:31:40;;;;;;;11.45;4.22;;;;;;;24.84;50.17;99735.94;4976445;28;20062;-82
2022/06/22 00:34:23;;;;;;;17.50;4.45;;;;;;;24.68;50.64;99722.84;4976380;28;20019;-81
2022/06/22 00:37:03;;;;;;;11.00;4.63;;;;;;;24.54;51.01;99737.91;4976253;28;20023;-81
2022/06/22 00:39:28;;;;;;;13.35;4.25;;;;;;;24.44;51.41;99729.41;4986173;28;20141;-81
2022/06/22 00:42:00;;;;;;;9.77;3.65;;;;;;;24.31;52.06;99721.38;4995389;28;20058;-80
2022/06/22 00:44:30;;;;;;;12.25;4.82;;;;;;;24.25;52.73;99728.63;4995150;28;20085;-81
2022/06/22 00:47:35;;;;;;;15.68;4.95;;;;;;;24.12;53.42;99750.00;4995116;28;20088;-81
2022/06/22 00:50:26;;;;;;;23.63;5.22;;;;;;;24.07;53.73;99747.91;4977388;28;20522;-81
2022/06/22 00:53:05;;;;;;;6.38;4.30;;;;;;;24.08;53.93;99771.56;4978402;28;20031;-85
2022/06/22 00:55:42;;;;;;;19.13;4.40;;;;;;;24.08;54.33;99789.97;4996497;28;20030;-85
2022/06/22 00:58:07;;;;;;;20.02;5.13;;;;;;;24.10;54.73;99801.56;4978910;28;20419;-86
2022/06/22 01:00:38;;;;;;;30.48;5.72;;;;;;;24.06;55.00;99822.34;4997175;28;20033;-85
2022/06/22 01:03:33;;;;;;;13.48;4.82;;;;;;;24.11;55.06;99825.25;4997474;28;20018;-86
2022/06/22 01:06:28;;;;;;;15.40;4.88;;;;;;;24.13;55.74;99839.59;4979047;28;20097;-86
2022/06/22 01:09:11;;;;;;;15.20;5.07;;;;;;;24.05;56.13;99840.72;4955467;28;20034;-85
2022/06/22 01:15:18;;;;;;;18.70;4.72;;;;;;;24.13;56.25;99856.91;4997415;28;20042;-86
2022/06/22 01:17:58;;;;;;;8.55;4.70;;;;;;;24.13;56.42;99856.91;4997162;28;20046;-85
2022/06/22 01:20:31;;;;;;;12.90;4.68;;;;;;;24.16;56.64;99866.59;4997145;28;20033;-85
2022/06/22 01:23:14;;;;;;;14.85;5.03;;;;;;;24.13;56.84;99872.56;4997949;28;20028;-85
2022/06/22 01:25:51;;;;;;;12.40;4.10;;;;;;;24.13;56.37;99861.56;4996797;28;20388;-85
2022/06/22 01:28:17;;;;;;;10.25;5.35;;;;;;;24.23;56.35;99873.69;4996444;28;20034;-85
2022/06/22 01:30:48;;;;;;;12.15;4.80;;;;;;;24.20;56.75;99876.91;4996595;28;20030;-85
2022/06/22 01:33:33;;;;;;;14.82;4.90;;;;;;;24.11;56.79;99870.06;4979266;28;20037;-85
2022/06/22 01:36:05;;;;;;;22.92;5.15;;;;;;;23.97;57.44;99882.25;4996279;28;20033;-85
2022/06/22 01:38:35;;;;;;;20.20;4.43;;;;;;;23.94;56.83;99877.22;4996328;28;20472;-85
2022/06/22 01:41:17;;;;;;;15.75;4.93;;;;;;;23.92;56.68;99884.84;4995838;28;20034;-85
2022/06/22 01:43:53;;;;;;;8.93;4.97;;;;;;;23.88;56.40;99880.88;4978662;28;20027;-86
2022/06/22 01:46:47;;;;;;;8.77;4.68;;;;;;;23.88;56.79;99882.78;4978781;28;20030;-86
2022/06/22 01:49:29;;;;;;;15.98;5.07;;;;;;;23.73;57.27;99880.41;4995882;28;20546;-85
2022/06/22 01:52:04;;;;;;;11.43;4.50;;;;;;;23.58;57.75;99896.41;4995827;28;20036;-85
2022/06/22 01:54:38;;;;;;;16.33;4.40;;;;;;;23.50;57.86;99867.34;4978127;28;20073;-85
2022/06/22 01:57:40;;;;;;;15.13;5.25;;;;;;;23.53;58.43;99888.84;4995704;28;20046;-85
2022/06/22 02:00:09;;;;;;;6.90;3.97;;;;;;;23.51;58.57;99901.13;4916981;29;20043;-85
2022/06/22 02:03:10;;;;;;;17.45;4.82;;;;;;;23.42;58.38;99892.38;4981052;28;20042;-85
2022/06/22 02:05:57;;;;;;;6.60;4.35;;;;;;;23.45;58.31;99907.53;4990756;28;20076;-85
2022/06/22 02:08:33;;;;;;;9.82;3.85;;;;;;;23.28;58.75;99912.69;4995557;28;20057;-85
2022/06/22 02:11:05;;;;;;;14.00;4.93;;;;;;;23.32;58.05;99905.72;4995724;28;20101;-84
2022/06/22 02:13:41;;;;;;;7.40;4.47;;;;;;;23.38;57.79;99912.19;4978451;28;20018;-85
2022/06/22 02:16:29;;;;;;;6.68;3.80;;;;;;;23.25;57.43;99902.19;4995479;28;20026;-84
2022/06/22 02:18:57;;;;;;;12.32;4.00;;;;;;;23.18;57.48;99895.91;4995027;28;20029;-85
2022/06/22 02:21:25;;;;;;;15.95;4.45;;;;;;;23.15;57.45;99901.84;4995914;28;20049;-85
2022/06/22 02:23:55;;;;;;;7.50;3.92;;;;;;;23.14;57.35;99890.03;4997806;28;20031;-85
2022/06/22 02:26:30;;;;;;;9.32;4.10;;;;;;;23.13;57.13;99903.97;4996824;28;20025;-86
2022/06/22 02:28:56;;;;;;;16.92;4.00;;;;;;;23.07;56.96;99910.34;4994181;28;20099;-85
2022/06/22 02:31:22;;;;;;;17.90;3.90;;;;;;;22.95;56.67;99906.66;4995354;28;20026;-85
2022/06/22 02:33:52;;;;;;;12.90;4.68;;;;;;;22.93;56.36;99904.13;4994604;28;20018;-86
2022/06/22 02:36:18;;;;;;;13.55;3.58;;;;;;;22.89;56.12;99902.91;4977364;28;20027;-85
2022/06/22 02:38:46;;;;;;;11.10;4.30;;;;;;;22.84;55.90;99900.00;4994737;28;20050;-85
2022/06/22 02:46:42;;;;;;;6.07;3.72;;;;;;;22.66;55.76;99919.91;4994820;28;20455;-85
2022/06/22 02:49:21;;;;;;;14.63;3.65;;;;;;;22.62;56.13;99917.81;4994159;28;20022;-84
2022/06/22 02:51:48;;;;;;;12.05;4.32;;;;;;;22.54;55.76;99915.31;4993983;28;20065;-84
2022/06/22 02:54:24;;;;;;;6.15;3.33;;;;;;;22.54;55.95;99926.28;4994525;28;20022;-85
2022/06/22 02:57:00;;;;;;;7.72;3.40;;;;;;;22.49;55.84;99913.25;4994597;28;20079;-84
2022/06/22 02:59:26;;;;;;;7.82;3.58;;;;;;;22.47;55.99;99914.53;4994209;28;20014;-84
2022/06/22 03:01:51;;;;;;;7.03;3.42;;;;;;;22.52;55.87;99923.75;4993993;28;20029;-85
2022/06/22 03:04:17;;;;;;;18.20;4.32;;;;;;;22.50;55.81;99925.06;4994022;28;20054;-84
2022/06/22 03:06:48;;;;;;;12.38;3.58;;;;;;;22.55;55.50;99927.97;4994061;28;20480;-85
2022/06/22 03:09:15;;;;;;;5.28;3.05;;;;;;;22.51;55.26;99933.03;4977561;28;20078;-85
2022/06/22 03:11:46;;;;;;;12.63;3.80;;;;;;;22.42;55.38;99931.59;4994863;28;20062;-85
2022/06/22 03:14:29;;;;;;;10.93;3.92;;;;;;;22.40;55.48;99928.25;4995107;28;20019;-86
2022/06/22 03:17:08;;;;;;;15.48;4.05;;;;;;;22.51;55.33;99949.47;4977522;28;20033;-85
2022/06/22 03:19:52;;;;;;;11.73;3.65;;;;;;;22.54;54.77;99949.03;4994599;28;20025;-85
2022/06/22 03:22:24;;;;;;;6.38;3.72;;;;;;;22.61;54.67;99951.75;4994821;28;20049;-84
2022/06/22 03:25:00;;;;;;;;;;;;;;;22.64;54.62;99965.88;4977883;28;20113;-84
2022/06/22 03:27:35;;;;;;;8.48;4.03;;;;;;;22.58;54.75;99955.78;4976630;28;20354;-85
2022/06/22 03:30:12;;;;;;;14.55;5.00;;;;;;;22.59;55.06;99954.72;4994128;28;20037;-85
2022/06/22 03:32:56;;;;;;;8.40;3.00;;;;;;;22.59;54.94;99967.59;4976558;28;20030;-85
2022/06/22 03:35:37;;;;;;;6.35;3.30;;;;;;;22.63;55.19;99969.66;4994032;28;20054;-85
2022/06/22 03:38:18;;;;;;;18.20;3.97;;;;;;;22.57;54.92;99975.16;4977050;28;20026;-85
2022/06/22 03:40:55;;;;;;;19.02;4.18;;;;;;;22.57;55.06;99989.72;4955081;28;20561;-86
2022/06/22 03:43:52;;;;;;;17.20;3.60;;;;;;;22.62;54.99;100006.38;4959754;28;20031;-85
2022/06/22 03:46:45;;;;;;;9.10;4.53;;;;;;;22.67;54.93;100009.31;4958536;28;20035;-85
2022/06/22 03:49:17;;;;;;;5.45;3.10;;;;;;;22.71;54.49;100016.06;4959097;28;20066;-84
2022/06/22 03:51:57;;;;;;;12.50;3.88;;;;;;;22.68;54.03;99999.22;4957941;29;20038;-85
2022/06/22 03:54:31;;;;;;;13.07;3.28;;;;;;;22.69;53.64;100007.19;4955354;29;20174;-85
2022/06/22 03:57:01;;;;;;;14.40;4.20;;;;;;;22.74;53.58;100015.63;4958087;29;20419;-84
2022/06/22 03:59:29;;;;;;;15.23;3.47;;;;;;;22.69;53.73;100007.19;4959697;28;20034;-85
2022/06/22 04:01:56;;;;;;;7.40;3.05;;;;;;;22.74;53.39;100021.09;4959211;28;20110;-84
2022/06/22 04:04:24;;;;;;;7.82;3.97;;;;;;;22.88;53.14;100015.53;4960660;28;20027;-85
2022/06/22 04:06:53;;;;;;;9.85;3.65;;;;;;;22.90;53.08;100019.78;4960902;29;20035;-86
2022/06/22 04:09:22;;;;;;;7.20;2.97;;;;;;;22.91;53.38;100026.06;4959159;28;20035;-84
2022/06/22 04:12:14;;;;;;;8.43;4.25;;;;;;;22.83;54.01;100005.25;4958397;28;20170;-86
2022/06/22 04:14:57;;;;;;;14.93;4.53;;;;;;;22.87;54.06;99994.69;4958943;28;20054;-85
2022/06/22 04:17:51;;;;;;;8.05;3.22;;;;;;;22.88;53.42;100008.16;4956653;29;20126;-81
2022/06/22 04:20:50;;;;;;;22.92;4.05;;;;;;;22.94;53.94;100014.66;4958641;28;20484;-81
2022/06/22 04:23:22;;;;;;;10.13;3.63;;;;;;;22.90;54.91;100018.91;4958583;28;20512;-88
2022/06/22 04:25:48;;;;;;;;;;;;;;;22.97;54.06;100019.69;4959504;28;20030;-84
2022/06/22 04:28:18;;;;;;;24.63;5.95;;;;;;;22.90;54.29;100002.47;4957834;29;19984;-84
2022/06/22 04:30:49;;;;;;;19.60;5.25;;;;;;;23.08;53.72;100035.50;4940605;29;20090;-82
2022/06/22 04:33:29;;;;;;;11.80;3.80;;;;;;;23.10;52.99;100036.09;4956368;29;20038;-84
2022/06/22 04:36:29;;;;;;;16.20;4.07;;;;;;;23.09;52.75;100023.44;4941683;29;20027;-86
2022/06/22 04:39:16;;;;;;;10.60;4.20;;;;;;;23.17;52.28;100029.53;4957743;28;20064;-81
2022/06/22 04:41:44;;;;;;;17.95;5.15;;;;;;;23.23;52.53;100041.50;4995984;28;20050;-81
2022/06/22 04:44:22;;;;;;;29.02;5.20;;;;;;;23.24;52.11;100027.56;4978822;28;20042;-78
2022/06/22 04:46:55;;;;;;;15.73;3.92;;;;;;;23.26;52.37;100030.09;4978495;28;20038;-82
2022/06/22 04:49:36;;;;;;;7.18;3.58;;;;;;;23.28;51.83;100033.44;4996036;28;20058;-83
2022/06/22 04:52:23;;;;;;;7.03;3.53;;;;;;;23.29;51.57;100030.50;4977558;28;20026;-82
2022/06/22 04:54:54;;;;;;;10.60;3.65;;;;;;;23.29;51.44;100041.47;4996150;28;20061;-83
2022/06/22 04:57:26;;;;;;;13.38;3.72;;;;;;;23.35;51.05;100030.66;4977680;28;20550;-83
2022/06/22 04:59:53;;;;;;;15.52;3.95;;;;;;;23.38;51.73;100033.81;4977729;28;20151;-82
2022/06/22 05:02:22;;;;;;;18.40;4.47;;;;;;;23.38;50.83;100028.31;4961389;28;20042;-82
2022/06/22 05:04:58;;;;;;;11.70;3.58;;;;;;;23.45;51.02;100034.63;4978095;28;20125;-82
2022/06/22 05:07:27;;;;;;;11.57;2.85;;;;;;;23.48;50.68;100038.84;4995090;28;20412;-82
2022/06/22 05:10:12;;;;;;;40.25;6.20;;;;;;;23.55;50.44;100045.94;4994975;28;20031;-82
2022/06/22 05:12:48;;;;;;;29.63;6.40;;;;;;;23.60;50.57;100035.16;4995449;28;20034;-82
2022/06/22 05:15:30;;;;;;;8.80;3.03;;;;;;;23.62;49.66;100041.25;4978593;28;20026;-82
2022/06/22 05:17:59;;;;;;;14.30;3.92;;;;;;;23.69;49.53;100041.19;4995594;28;20038;-82
2022/06/22 05:20:51;;;;;;;10.90;3.08;;;;;;;23.79;48.96;100036.88;4978576;28;20125;-84
2022/06/22 05:23:21;;;;;;;14.88;3.47;;;;;;;23.76;48.90;100053.78;4981433;28;20110;-82
2022/06/22 05:25:48;;;;;;;22.02;5.25;;;;;;;23.78;49.24;100051.69;4993857;28;20034;-83
2022/06/22 05:28:20;;;;;;;103.15;9.57;;;;;;;23.78;49.19;100035.19;4995191;28;20391;-82
2022/06/22 05:30:57;;;;;;;23.35;3.70;;;;;;;23.88;48.86;100047.59;4994502;28;20030;-82
2022/06/22 05:33:26;;;;;;;7.82;2.40;;;;;;;23.95;48.04;100045.59;4994419;28;20472;-83
2022/06/22 05:36:15;;;;;;;51.88;5.03;;;;;;;23.88;47.88;100039.34;4993773;28;20408;-83
2022/06/22 05:38:44;;;;;;;19.13;3.40;;;;;;;24.03;47.37;100048.06;4995706;28;20054;-82
2022/06/22 05:41:17;;;;;;;22.90;3.97;;;;;;;24.00;47.16;100037.53;4996395;28;20070;-82
2022/06/22 05:43:42;;;;;;;7.60;2.00;;;;;;;24.03;47.09;100039.84;4995845;28;20031;-84
2022/06/22 05:46:10;;;;;;;7.05;3.25;;;;;;;24.10;46.90;100043.34;4994963;28;20044;-82
2022/06/22 05:48:47;;;;;;;14.13;3.45;;;;;;;24.13;46.17;100048.41;4994353;28;20088;-82
2022/06/22 05:51:39;;;;;;;8.55;2.35;;;;;;;24.20;45.62;100032.69;4962051;28;20099;-83
2022/06/22 05:54:15;;;;;;;13.03;3.27;;;;;;;24.34;45.77;100048.00;4994950;28;20102;-82
2022/06/22 05:57:13;;;;;;;8.00;2.92;;;;;;;24.36;45.75;100043.09;4977530;28;20031;-83
2022/06/22 06:00:08;;;;;;;4.65;2.50;;;;;;;24.45;44.88;100047.22;4980204;28;20039;-83
2022/06/22 06:02:59;;;;;;;30.27;4.97;;;;;;;24.38;44.02;100038.22;4990811;28;20109;-84
2022/06/22 06:05:40;;;;;;;4.75;2.38;;;;;;;24.34;44.34;100034.25;4994372;28;20054;-82
2022/06/22 06:08:35;;;;;;;26.13;3.53;;;;;;;24.42;44.92;100039.44;4994687;28;20030;-83
2022/06/22 06:11:02;;;;;;;12.43;2.90;;;;;;;24.48;44.35;100034.94;4972678;28;20053;-82
2022/06/22 06:13:44;;;;;;;16.60;4.15;;;;;;;24.53;44.39;100033.16;4995048;28;20428;-83
2022/06/22 06:16:15;;;;;;;7.35;2.35;;;;;;;24.63;43.84;100038.13;4978021;28;20030;-82
2022/06/22 06:18:45;;;;;;;40.80;4.72;;;;;;;24.69;44.22;100035.31;4977846;28;20035;-83
2022/06/22 06:21:17;;;;;;;12.80;2.95;;;;;;;24.71;44.05;100046.06;4994937;28;20089;-82
2022/06/22 06:23:51;;;;;;;17.05;3.45;;;;;;;24.69;44.04;100043.56;4994658;28;20106;-78
2022/06/22 06:29:30;;;;;;;14.30;2.97;;;;;;;24.68;46.08;100041.88;4993445;28;20061;-78
2022/06/22 06:32:23;;;;;;;12.45;2.65;;;;;;;24.72;46.08;100042.25;4993087;28;20476;-76
2022/06/22 06:35:02;;;;;;;8.90;2.47;;;;;;;24.75;45.17;100037.13;4993057;28;20087;-77
2022/06/22 06:37:40;;;;;;;9.70;2.35;;;;;;;24.75;44.84;100048.13;4993127;28;20026;-77
2022/06/22 06:40:13;;;;;;;17.05;2.85;;;;;;;24.60;45.19;100053.19;4992114;28;20058;-77
2022/06/22 06:42:50;;;;;;;;;;;;;;;24.69;45.28;100046.31;4975603;28;20042;-78
2022/06/22 06:45:22;;;;;;;11.20;3.38;;;;;;;24.71;45.34;100051.56;4972577;28;19922;-76
2022/06/22 06:47:53;;;;;;;8.55;2.60;;;;;;;24.81;44.84;100055.50;4990887;28;20045;-75
2022/06/22 06:50:26;;;;;;;13.25;2.67;;;;;;;24.78;44.42;100057.81;4991853;28;20090;-76
2022/06/22 06:53:03;;;;;;;15.07;2.67;;;;;;;24.76;44.43;100052.56;4992108;28;20034;-77
2022/06/22 06:55:52;;;;;;;8.30;2.97;;;;;;;24.71;44.74;100063.41;4992114;28;20026;-77
2022/06/22 06:58:42;;;;;;;18.88;2.83;;;;;;;24.72;43.78;100062.34;4991957;28;20069;-76
2022/06/22 07:01:22;;;;;;;10.02;2.45;;;;;;;24.75;43.44;100063.78;4989390;28;20038;-76
2022/06/22 07:03:51;;;;;;;7.47;2.10;;;;;;;24.76;43.20;100063.56;4989141;28;20034;-76
2022/06/22 07:06:17;;;;;;;22.38;2.75;;;;;;;24.73;42.71;100063.19;4990370;28;20384;-76
2022/06/22 07:08:55;;;;;;;6.05;1.77;;;;;;;24.76;41.95;100060.81;4990631;28;20548;-76
2022/06/22 07:11:37;;;;;;;12.57;2.75;;;;;;;24.72;41.78;100059.59;4989325;28;20042;-76
2022/06/22 07:14:08;;;;;;;29.35;4.53;;;;;;;24.75;42.68;100059.13;4989359;28;20030;-76
2022/06/22 07:16:36;;;;;;;12.05;2.55;;;;;;;24.78;42.80;100064.19;4991262;28;20053;-76
2022/06/22 07:19:14;;;;;;;18.73;3.55;;;;;;;24.85;43.35;100058.63;4991450;28;20026;-77
2022/06/22 07:21:56;;;;;;;21.63;3.95;;;;;;;24.92;43.24;100069.56;4990466;28;20049;-77
2022/06/22 07:24:38;;;;;;;20.45;3.80;;;;;;;24.99;43.22;100068.38;4990342;28;20515;-76
2022/06/22 07:27:06;;;;;;;15.27;2.42;;;;;;;24.94;42.89;100053.63;4990536;28;20252;-75
2022/06/22 07:29:44;;;;;;;6.35;2.63;;;;;;;25.10;43.06;100075.88;4990185;28;20030;-74
2022/06/22 07:32:37;;;;;;;15.75;3.00;;;;;;;25.05;42.75;100074.84;4991037;28;20038;-77
2022/06/22 07:35:05;;;;;;;19.58;4.57;;;;;;;25.06;42.75;100071.03;4991321;28;20026;-76
2022/06/22 07:37:40;;;;;;;7.13;2.10;;;;;;;25.01;42.83;100076.41;4990303;28;20058;-75
2022/06/22 07:40:10;;;;;;;10.85;3.55;;;;;;;25.04;43.23;100079.53;4948308;28;1302609;-75
2022/06/22 07:42:36;;;;;;;21.25;3.60;;;;;;;25.13;43.00;100071.81;4991174;28;20042;-77
2022/06/22 07:45:01;;;;;;;10.48;2.30;;;;;;;25.08;41.53;100074.41;4993258;28;20058;-75
2022/06/22 07:47:38;;;;;;;9.02;2.70;;;;;;;25.08;42.61;100066.13;4998087;28;20026;-75
2022/06/22 07:50:18;;;;;;;8.23;2.55;;;;;;;25.13;42.11;100071.81;4999869;28;20092;-75
2022/06/22 07:52:55;;;;;;;14.93;2.10;;;;;;;25.19;43.00;100065.38;4996463;28;20030;-76
2022/06/22 07:55:31;;;;;;;7.13;2.33;;;;;;;25.24;42.57;100080.09;4993840;28;20022;-76
2022/06/22 07:58:27;;;;;;;15.63;3.03;;;;;;;25.30;42.19;100079.16;4992700;28;20080;-76
2022/06/22 08:01:03;;;;;;;29.55;4.60;;;;;;;25.36;42.42;100077.38;4992255;28;20022;-76
2022/06/22 08:03:38;;;;;;;12.73;4.13;;;;;;;25.50;41.90;100072.56;4991213;28;20057;-74
2022/06/22 08:06:10;;;;;;;8.02;2.30;;;;;;;25.57;41.71;100073.28;4992282;28;20029;-76
2022/06/22 08:08:39;;;;;;;40.88;5.82;;;;;;;25.66;41.75;100072.72;4992148;28;20026;-74
2022/06/22 08:11:25;;;;;;;19.90;5.38;;;;;;;25.74;42.06;100069.63;4992108;28;20030;-75
2022/06/22 08:14:02;;;;;;;9.13;2.60;;;;;;;25.70;41.28;100068.41;4990798;28;20113;-77
2022/06/22 08:16:43;;;;;;;22.40;4.72;;;;;;;25.77;41.64;100065.56;4991000;28;20117;-75
2022/06/22 08:19:09;;;;;;;31.88;5.25;;;;;;;26.01;41.63;100066.41;4990592;28;20392;-75
2022/06/22 08:21:43;;;;;;;36.80;6.28;;;;;;;26.17;41.37;100060.22;4991579;28;20108;-75
2022/06/22 08:24:12;;;;;;;9.63;2.70;;;;;;;26.10;41.68;100063.06;4990337;28;20408;-75
2022/06/22 08:26:38;;;;;;;11.32;2.17;;;;;;;26.03;40.76;100055.97;4991713;28;20046;-75
2022/06/22 08:29:05;;;;;;;16.23;2.80;;;;;;;25.99;40.61;100064.72;4993341;28;20062;-75
2022/06/22 08:31:36;;;;;;;7.75;2.50;;;;;;;25.98;40.30;100065.81;4994842;28;20034;-75
2022/06/22 08:34:07;;;;;;;9.65;2.42;;;;;;;26.05;40.28;100059.34;4995412;28;20482;-76
2022/06/22 08:36:40;;;;;;;9.32;2.40;;;;;;;26.10;40.30;100067.75;4995291;28;20384;-75
2022/06/22 08:39:37;;;;;;;3.72;1.80;;;;;;;26.01;39.90;100063.66;4993551;28;20053;-76
2022/06/22 08:42:28;;;;;;;22.27;3.72;;;;;;;25.94;41.05;100064.63;4995058;28;20042;-75
2022/06/22 08:45:18;;;;;;;24.25;11.18;;;;;;;26.02;40.30;100054.31;4995079;28;20030;-75
2022/06/22 08:48:09;;;;;;;12.88;2.42;;;;;;;25.99;40.73;100039.91;4993857;28;20040;-76
2022/06/22 08:50:58;;;;;;;7.30;2.60;;;;;;;26.09;40.62;100042.09;4993855;28;20796;-75
2022/06/22 08:53:47;;;;;;;7.97;2.00;;;;;;;26.12;38.86;100038.84;4954929;28;20045;-76
2022/06/22 08:56:41;;;;;;;6.40;1.95;;;;;;;26.12;39.31;100040.75;4993309;28;20411;-77
2022/06/22 08:59:34;;;;;;;8.63;2.20;;;;;;;26.13;40.68;100046.06;4993365;28;20555;-77
2022/06/22 09:02:26;;;;;;;22.58;2.88;;;;;;;26.13;40.91;100045.22;4993214;28;20129;-75
2022/06/22 09:05:06;;;;;;;;;;;;;;;26.07;41.82;100051.69;4995034;28;20113;-75
2022/06/22 09:08:03;;;;;;;15.65;2.53;;;;;;;26.04;41.36;100052.16;4994426;28;19917;-75
2022/06/22 09:10:44;;;;;;;12.77;2.33;;;;;;;25.90;41.93;100046.88;4994447;28;20085;-76
2022/06/22 09:13:28;;;;;;;10.98;2.92;;;;;;;25.95;41.61;100055.28;4993027;28;20464;-75
2022/06/22 09:16:21;;;;;;;13.57;2.53;;;;;;;25.80;41.85;100041.13;4994328;28;20054;-75
2022/06/22 09:19:14;;;;;;;6.57;2.60;;;;;;;25.83;43.28;100037.91;4993724;28;20088;-75
2022/06/22 09:22:14;;;;;;;14.40;3.10;;;;;;;25.86;42.56;100033.81;4992939;28;20131;-75
2022/06/22 09:25:26;;;;;;;10.18;2.67;;;;;;;25.77;42.97;100022.31;4993711;28;20046;-78
2022/06/22 09:28:00;;;;;;;17.67;3.92;;;;;;;25.78;43.80;100021.22;4993538;28;20042;-75
2022/06/22 09:30:47;;;;;;;13.48;3.03;;;;;;;25.88;44.50;100031.66;4994228;28;20487;-76
2022/06/22 09:33:47;;;;;;;4.05;2.30;;;;;;;25.76;42.85;100026.16;4992813;28;20042;-75
2022/06/22 09:36:28;;;;;;;13.48;2.72;;;;;;;25.64;43.95;100025.28;4993947;28;20121;-76
2022/06/22 09:39:14;;;;;;;14.85;5.47;;;;;;;25.75;43.95;100021.69;4991048;28;20044;-75
2022/06/22 09:42:05;;;;;;;5.85;2.20;;;;;;;25.86;43.71;100020.03;4993825;28;20050;-76
2022/06/22 09:44:55;;;;;;;7.30;2.00;;;;;;;25.81;42.99;100026.25;4992558;28;20423;-76
2022/06/22 09:47:39;;;;;;;11.27;2.40;;;;;;;25.95;43.82;100024.13;4993776;28;20171;-76
2022/06/22 09:50:10;;;;;;;7.03;2.75;;;;;;;25.98;44.83;100034.66;4994360;28;20143;-80
2022/06/22 09:53:00;;;;;;;5.50;2.80;;;;;;;26.04;45.01;100019.94;4994049;28;20506;-76
2022/06/22 09:59:04;;;;;;;12.43;2.33;;;;;;;25.96;44.84;100029.38;4993630;28;20037;-77
2022/06/22 10:01:51;;;;;;;17.55;3.25;;;;;;;26.01;44.59;100023.16;4993940;28;20081;-76
2022/06/22 10:04:37;;;;;;;8.25;2.53;;;;;;;26.22;44.82;100021.75;4992019;28;20173;-76
2022/06/22 10:07:34;;;;;;;10.88;2.30;;;;;;;26.25;45.35;100011.06;4993456;28;20026;-76
2022/06/22 10:10:17;;;;;;;6.30;2.35;;;;;;;26.24;45.43;100014.06;4993511;28;20488;-77
2022/06/22 10:12:53;;;;;;;13.75;3.00;;;;;;;26.25;45.65;100004.72;4993259;28;20109;-77
2022/06/22 10:15:37;;;;;;;5.20;2.78;;;;;;;26.26;45.74;100006.41;4991877;28;20101;-76
2022/06/22 10:18:08;;;;;;;11.05;2.55;;;;;;;26.12;45.71;100010.44;4993153;28;20045;-76
2022/06/22 10:20:58;;;;;;;9.32;2.85;;;;;;;26.28;46.06;100009.75;4991891;28;20037;-78
2022/06/22 10:23:48;;;;;;;15.88;3.22;;;;;;;26.16;45.22;100017.19;4992973;28;20116;-76
2022/06/22 10:26:57;;;;;;;7.70;3.42;;;;;;;26.09;46.18;100022.78;4993005;28;20409;-76
2022/06/22 10:29:47;;;;;;;15.98;2.70;;;;;;;26.10;46.36;100026.38;4990905;28;20034;-76
2022/06/22 10:32:49;;;;;;;17.08;2.67;;;;;;;26.17;46.90;100018.88;4993204;28;20034;-76
2022/06/22 10:35:23;;;;;;;4.20;2.85;;;;;;;26.28;47.25;100020.78;4992808;28;20030;-75
2022/06/22 10:37:52;;;;;;;12.20;3.05;;;;;;;26.41;47.34;100009.50;4992964;28;20036;-76
2022/06/22 10:46:52;;;;;;;9.05;2.45;;;;;;;26.17;46.71;99991.31;4992866;28;20056;-75
2022/06/22 10:49:48;;;;;;;4.75;2.03;;;;;;;26.31;47.11;100001.00;4991496;28;20037;-76
2022/06/22 10:52:44;;;;;;;7.40;2.78;;;;;;;26.49;46.09;99992.56;4991353;28;20057;-76
2022/06/22 10:55:13;;;;;;;5.57;2.00;;;;;;;26.62;46.56;99983.16;4991192;28;20037;-77
2022/06/22 10:57:57;;;;;;;10.63;2.47;;;;;;;26.76;46.17;99985.38;4991117;28;20026;-76
2022/06/22 11:00:50;;;;;;;12.63;2.88;;;;;;;26.81;46.58;99985.53;4992716;28;20027;-76
2022/06/22 11:03:22;;;;;;;;;;;;;;;26.80;46.74;99978.34;4992947;28;20096;-76
2022/06/22 11:06:14;;;;;;;17.27;4.15;;;;;;;26.58;47.59;99985.56;4991387;28;20302;-76
2022/06/22 11:09:02;;;;;;;4.72;2.60;;;;;;;26.64;48.57;99981.00;4991247;28;20030;-75
2022/06/22 11:12:19;;;;;;;5.70;2.83;;;;;;;26.75;48.17;99972.69;4990695;28;20038;-74
2022/06/22 11:15:11;;;;;;;4.90;2.45;;;;;;;26.34;48.63;99971.00;4992326;28;20124;-75
2022/06/22 11:17:49;;;;;;;17.20;2.90;;;;;;;26.46;49.09;99977.34;4946173;28;20138;-77
2022/06/22 11:20:33;;;;;;;13.55;3.03;;;;;;;26.64;48.80;99981.84;4991738;28;20124;-76
2022/06/22 11:23:07;;;;;;;17.17;3.55;;;;;;;26.62;48.24;99978.50;4991137;28;20031;-78
2022/06/22 11:32:30;;;;;;;13.13;2.80;;;;;;;27.03;48.85;99983.75;4992783;28;20474;-78
2022/06/22 11:35:24;;;;;;;12.90;4.03;;;;;;;27.08;47.94;99965.59;4989548;28;20109;-87
2022/06/22 11:38:13;;;;;;;6.53;2.30;;;;;;;27.12;48.35;99984.19;4975200;28;20035;-79
2022/06/22 11:41:21;;;;;;;8.52;2.63;;;;;;;27.34;47.91;99990.66;4992205;28;20050;-80
2022/06/22 11:44:36;;;;;;;18.75;3.60;;;;;;;27.38;47.32;99989.06;4948455;28;20078;-79
2022/06/22 11:47:29;;;;;;;8.80;2.92;;;;;;;27.09;48.43;99983.84;4919346;28;20039;-79
2022/06/22 11:50:08;;;;;;;;;;;;;;;27.25;47.99;99978.34;4977842;28;20038;-79
2022/06/22 11:53:15;;;;;;;12.07;3.30;;;;;;;26.98;48.64;99983.66;4974521;28;20000;-79
2022/06/22 11:55:48;;;;;;;7.78;2.47;;;;;;;27.10;48.35;99979.97;4925350;28;20034;-79
2022/06/22 11:58:38;;;;;;;19.83;3.63;;;;;;;26.98;48.70;99978.13;4973130;28;20030;-79
2022/06/22 12:01:16;;;;;;;10.93;2.92;;;;;;;26.82;49.47;99972.56;4974193;28;20027;-79
2022/06/22 12:04:26;;;;;;;11.90;3.40;;;;;;;26.75;50.05;99983.72;4959927;28;20038;-79
2022/06/22 12:07:09;;;;;;;12.35;3.38;;;;;;;26.94;49.71;99976.94;4995070;28;20038;-78
2022/06/22 12:09:41;;;;;;;14.80;3.33;;;;;;;27.13;49.08;99962.94;4977915;28;20407;-79
2022/06/22 12:12:46;;;;;;;12.60;3.03;;;;;;;27.26;49.22;99968.13;4978346;28;20037;-78
2022/06/22 12:15:37;;;;;;;11.32;2.83;;;;;;;27.34;49.57;99970.47;4995626;28;20553;-79
2022/06/22 12:18:32;;;;;;;8.38;2.75;;;;;;;27.18;49.32;99965.78;4995460;28;20026;-79
2022/06/22 12:21:09;;;;;;;7.43;2.72;;;;;;;27.27;49.79;99967.91;4978085;28;20027;-79
2022/06/22 12:24:04;;;;;;;30.27;3.25;;;;;;;27.28;49.43;99966.78;4995214;28;20114;-79
2022/06/22 12:26:52;;;;;;;27.23;3.22;;;;;;;27.08;50.14;99971.13;4995272;28;20027;-79
2022/06/22 12:29:50;;;;;;;7.63;4.20;;;;;;;27.04;50.66;99948.69;4993990;28;20411;-79
2022/06/22 12:32:23;;;;;;;12.07;3.10;;;;;;;27.21;50.42;99938.53;4927013;28;20034;-81
2022/06/22 12:35:32;;;;;;;6.20;2.38;;;;;;;27.19;50.01;99956.41;4993796;28;20030;-79
2022/06/22 12:38:22;;;;;;;7.63;2.58;;;;;;;27.25;50.24;99958.16;4915824;29;20052;-78
2022/06/22 12:41:09;;;;;;;10.32;2.60;;;;;;;27.21;49.87;99970.81;4994530;28;20061;-79
2022/06/22 12:43:57;;;;;;;9.57;2.85;;;;;;;27.29;49.67;99954.66;4995573;28;20137;-79
2022/06/22 12:46:48;;;;;;;8.57;2.50;;;;;;;27.13;50.35;99949.97;4994774;28;20427;-80
2022/06/22 12:49:41;;;;;;;9.27;2.70;;;;;;;27.06;50.88;99948.47;4995556;28;20415;-79
2022/06/22 12:52:24;;;;;;;15.98;2.92;;;;;;;27.29;50.68;99937.25;4977428;28;20484;-80